sensor_id;sensor_type;location;lat;lon;timestamp;P1;durP1;ratioP1;P2;durP2;ratioP2
64791;SDS011;51226;47.504;19.074;2023-02-05T00:02:48;3.28;;;2.53;;
64791;SDS011;51226;47.504;19.074;2023-02-05T00:05:51;3.70;;;2.45;;
64791;SDS011;51226;47.504;19.074;2023-02-05T00:08:54;6.62;;;2.50;;
64791;SDS011;51226;47.504;19.074;2023-02-05T00:11:58;6.62;;;2.85;;
64791;SDS011;51226;47.504;19.074;2023-02-05T00:15:02;6.47;;;3.30;;
64791;SDS011;51226;47.504;19.074;2023-02-05T00:18:05;3.60;;;3.00;;
64791;SDS011;51226;47.504;19.074;2023-02-05T00:21:08;5.60;;;3.03;;
64791;SDS011;51226;47.504;19.074;2023-02-05T00:24:11;4.00;;;2.80;;
64791;SDS011;51226;47.504;19.074;2023-02-05T00:27:14;3.83;;;2.60;;
64791;SDS011;51226;47.504;19.074;2023-02-05T00:30:17;3.12;;;2.42;;
64791;SDS011;51226;47.504;19.074;2023-02-05T00:33:20;6.05;;;2.53;;
64791;SDS011;51226;47.504;19.074;2023-02-05T00:36:23;5.75;;;2.87;;
64791;SDS011;51226;47.504;19.074;2023-02-05T00:39:27;4.78;;;2.47;;
64791;SDS011;51226;47.504;19.074;2023-02-05T00:42:30;3.08;;;2.40;;
64791;SDS011;51226;47.504;19.074;2023-02-05T00:45:33;3.22;;;2.87;;
64791;SDS011;51226;47.504;19.074;2023-02-05T00:48:39;4.55;;;2.40;;
64791;SDS011;51226;47.504;19.074;2023-02-05T00:51:43;3.50;;;2.45;;
64791;SDS011;51226;47.504;19.074;2023-02-05T00:54:46;2.90;;;2.05;;
64791;SDS011;51226;47.504;19.074;2023-02-05T00:57:50;3.55;;;2.15;;
64791;SDS011;51226;47.504;19.074;2023-02-05T01:00:53;3.83;;;2.47;;
64791;SDS011;51226;47.504;19.074;2023-02-05T01:03:56;4.97;;;2.40;;
64791;SDS011;51226;47.504;19.074;2023-02-05T01:06:59;3.17;;;2.17;;
64791;SDS011;51226;47.504;19.074;2023-02-05T01:10:02;2.30;;;1.90;;
64791;SDS011;51226;47.504;19.074;2023-02-05T01:13:06;3.10;;;2.35;;
64791;SDS011;51226;47.504;19.074;2023-02-05T01:16:09;5.43;;;2.50;;
64791;SDS011;51226;47.504;19.074;2023-02-05T01:19:12;3.12;;;1.90;;
64791;SDS011;51226;47.504;19.074;2023-02-05T01:22:15;3.03;;;2.08;;
64791;SDS011;51226;47.504;19.074;2023-02-05T01:25:18;2.92;;;2.10;;
64791;SDS011;51226;47.504;19.074;2023-02-05T01:28:21;4.40;;;3.95;;
64791;SDS011;51226;47.504;19.074;2023-02-05T01:31:24;4.03;;;1.90;;
64791;SDS011;51226;47.504;19.074;2023-02-05T01:34:30;4.57;;;2.37;;
64791;SDS011;51226;47.504;19.074;2023-02-05T01:37:33;3.30;;;2.30;;
64791;SDS011;51226;47.504;19.074;2023-02-05T01:40:36;2.83;;;2.25;;
64791;SDS011;51226;47.504;19.074;2023-02-05T01:43:39;3.90;;;2.45;;
64791;SDS011;51226;47.504;19.074;2023-02-05T01:46:42;3.20;;;2.12;;
64791;SDS011;51226;47.504;19.074;2023-02-05T01:49:46;3.97;;;2.42;;
64791;SDS011;51226;47.504;19.074;2023-02-05T01:52:50;3.90;;;2.20;;
64791;SDS011;51226;47.504;19.074;2023-02-05T01:55:58;5.43;;;2.60;;
64791;SDS011;51226;47.504;19.074;2023-02-05T02:02:17;4.15;;;2.55;;
64791;SDS011;51226;47.504;19.074;2023-02-05T02:05:20;6.37;;;2.83;;
64791;SDS011;51226;47.504;19.074;2023-02-05T02:08:23;4.20;;;3.03;;
64791;SDS011;51226;47.504;19.074;2023-02-05T02:14:31;6.07;;;2.53;;
64791;SDS011;51226;47.504;19.074;2023-02-05T02:17:37;3.08;;;1.75;;
64791;SDS011;51226;47.504;19.074;2023-02-05T02:20:43;3.65;;;2.35;;
64791;SDS011;51226;47.504;19.074;2023-02-05T02:30:33;2.42;;;2.08;;
64791;SDS011;51226;47.504;19.074;2023-02-05T02:37:14;3.37;;;2.47;;
64791;SDS011;51226;47.504;19.074;2023-02-05T02:40:27;3.15;;;2.60;;
64791;SDS011;51226;47.504;19.074;2023-02-05T02:47:00;3.35;;;2.03;;
64791;SDS011;51226;47.504;19.074;2023-02-05T02:50:10;4.87;;;2.28;;
64791;SDS011;51226;47.504;19.074;2023-02-05T02:53:23;3.60;;;2.45;;
64791;SDS011;51226;47.504;19.074;2023-02-05T02:56:30;3.55;;;2.37;;
64791;SDS011;51226;47.504;19.074;2023-02-05T02:59:38;3.30;;;2.45;;
64791;SDS011;51226;47.504;19.074;2023-02-05T03:02:44;3.30;;;2.15;;
64791;SDS011;51226;47.504;19.074;2023-02-05T03:05:49;3.08;;;2.12;;
64791;SDS011;51226;47.504;19.074;2023-02-05T03:09:00;3.53;;;2.10;;
64791;SDS011;51226;47.504;19.074;2023-02-05T03:12:07;7.22;;;2.55;;
64791;SDS011;51226;47.504;19.074;2023-02-05T03:18:14;2.50;;;2.30;;
64791;SDS011;51226;47.504;19.074;2023-02-05T03:21:29;3.33;;;2.30;;
64791;SDS011;51226;47.504;19.074;2023-02-05T03:24:37;2.72;;;2.03;;
64791;SDS011;51226;47.504;19.074;2023-02-05T03:27:41;3.25;;;2.08;;
64791;SDS011;51226;47.504;19.074;2023-02-05T03:40:49;4.22;;;2.45;;
64791;SDS011;51226;47.504;19.074;2023-02-05T03:43:58;3.03;;;1.95;;
64791;SDS011;51226;47.504;19.074;2023-02-05T03:47:26;3.70;;;2.40;;
64791;SDS011;51226;47.504;19.074;2023-02-05T03:50:41;2.75;;;2.17;;
64791;SDS011;51226;47.504;19.074;2023-02-05T03:57:09;6.62;;;3.55;;
64791;SDS011;51226;47.504;19.074;2023-02-05T04:00:14;3.22;;;2.28;;
64791;SDS011;51226;47.504;19.074;2023-02-05T04:03:18;3.30;;;2.08;;
64791;SDS011;51226;47.504;19.074;2023-02-05T04:09:26;4.68;;;2.53;;
64791;SDS011;51226;47.504;19.074;2023-02-05T04:12:29;2.78;;;2.50;;
64791;SDS011;51226;47.504;19.074;2023-02-05T04:15:32;2.87;;;2.37;;
64791;SDS011;51226;47.504;19.074;2023-02-05T04:18:37;4.03;;;2.50;;
64791;SDS011;51226;47.504;19.074;2023-02-05T04:24:44;4.62;;;2.40;;
64791;SDS011;51226;47.504;19.074;2023-02-05T04:27:47;2.80;;;2.00;;
64791;SDS011;51226;47.504;19.074;2023-02-05T04:30:50;3.97;;;2.58;;
64791;SDS011;51226;47.504;19.074;2023-02-05T04:33:53;4.20;;;2.45;;
64791;SDS011;51226;47.504;19.074;2023-02-05T04:36:56;3.90;;;2.20;;
64791;SDS011;51226;47.504;19.074;2023-02-05T04:40:00;3.65;;;1.95;;
64791;SDS011;51226;47.504;19.074;2023-02-05T04:43:03;3.95;;;2.50;;
64791;SDS011;51226;47.504;19.074;2023-02-05T04:46:08;3.40;;;2.58;;
64791;SDS011;51226;47.504;19.074;2023-02-05T04:49:12;2.78;;;2.20;;
64791;SDS011;51226;47.504;19.074;2023-02-05T04:52:15;5.40;;;2.42;;
64791;SDS011;51226;47.504;19.074;2023-02-05T04:55:18;3.70;;;2.72;;
64791;SDS011;51226;47.504;19.074;2023-02-05T04:58:20;4.18;;;2.15;;
64791;SDS011;51226;47.504;19.074;2023-02-05T05:01:23;3.05;;;2.65;;
64791;SDS011;51226;47.504;19.074;2023-02-05T05:04:26;3.25;;;2.22;;
64791;SDS011;51226;47.504;19.074;2023-02-05T05:07:29;4.37;;;2.60;;
64791;SDS011;51226;47.504;19.074;2023-02-05T05:10:32;4.60;;;2.80;;
64791;SDS011;51226;47.504;19.074;2023-02-05T05:13:35;4.53;;;2.60;;
64791;SDS011;51226;47.504;19.074;2023-02-05T05:16:39;3.72;;;2.58;;
64791;SDS011;51226;47.504;19.074;2023-02-05T05:19:42;5.32;;;2.83;;
64791;SDS011;51226;47.504;19.074;2023-02-05T05:22:45;3.12;;;2.47;;
64791;SDS011;51226;47.504;19.074;2023-02-05T05:25:48;4.87;;;2.62;;
64791;SDS011;51226;47.504;19.074;2023-02-05T05:28:54;5.07;;;2.78;;
64791;SDS011;51226;47.504;19.074;2023-02-05T05:31:57;4.15;;;2.58;;
64791;SDS011;51226;47.504;19.074;2023-02-05T05:35:00;4.82;;;2.72;;
64791;SDS011;51226;47.504;19.074;2023-02-05T05:38:03;3.62;;;2.55;;
64791;SDS011;51226;47.504;19.074;2023-02-05T05:41:07;4.15;;;2.97;;
64791;SDS011;51226;47.504;19.074;2023-02-05T05:44:37;3.58;;;2.75;;
64791;SDS011;51226;47.504;19.074;2023-02-05T05:47:40;3.92;;;2.50;;
64791;SDS011;51226;47.504;19.074;2023-02-05T05:50:43;3.80;;;2.50;;
64791;SDS011;51226;47.504;19.074;2023-02-05T05:53:46;3.17;;;2.62;;
64791;SDS011;51226;47.504;19.074;2023-02-05T05:56:49;4.75;;;3.12;;
64791;SDS011;51226;47.504;19.074;2023-02-05T05:59:52;4.15;;;3.08;;
64791;SDS011;51226;47.504;19.074;2023-02-05T06:02:55;3.28;;;2.53;;
64791;SDS011;51226;47.504;19.074;2023-02-05T06:06:01;4.25;;;2.78;;
64791;SDS011;51226;47.504;19.074;2023-02-05T06:09:05;4.82;;;2.85;;
64791;SDS011;51226;47.504;19.074;2023-02-05T06:12:11;3.70;;;2.78;;
64791;SDS011;51226;47.504;19.074;2023-02-05T06:15:14;2.92;;;2.40;;
64791;SDS011;51226;47.504;19.074;2023-02-05T06:18:17;3.65;;;2.85;;
64791;SDS011;51226;47.504;19.074;2023-02-05T06:21:21;4.50;;;3.05;;
64791;SDS011;51226;47.504;19.074;2023-02-05T06:24:24;3.20;;;2.70;;
64791;SDS011;51226;47.504;19.074;2023-02-05T06:27:27;3.37;;;2.55;;
64791;SDS011;51226;47.504;19.074;2023-02-05T06:30:30;4.50;;;2.90;;
64791;SDS011;51226;47.504;19.074;2023-02-05T06:33:33;4.95;;;2.67;;
64791;SDS011;51226;47.504;19.074;2023-02-05T06:36:36;3.17;;;2.45;;
64791;SDS011;51226;47.504;19.074;2023-02-05T06:39:39;4.50;;;2.60;;
64791;SDS011;51226;47.504;19.074;2023-02-05T06:42:42;4.05;;;3.28;;
64791;SDS011;51226;47.504;19.074;2023-02-05T06:45:45;3.37;;;3.03;;
64791;SDS011;51226;47.504;19.074;2023-02-05T06:48:48;3.22;;;2.72;;
64791;SDS011;51226;47.504;19.074;2023-02-05T06:51:51;11.50;;;7.18;;
64791;SDS011;51226;47.504;19.074;2023-02-05T06:54:55;9.68;;;5.80;;
64791;SDS011;51226;47.504;19.074;2023-02-05T06:57:57;6.18;;;2.85;;
64791;SDS011;51226;47.504;19.074;2023-02-05T07:01:00;3.08;;;2.53;;
64791;SDS011;51226;47.504;19.074;2023-02-05T07:07:07;12.13;;;6.05;;
64791;SDS011;51226;47.504;19.074;2023-02-05T07:10:10;4.57;;;3.42;;
64791;SDS011;51226;47.504;19.074;2023-02-05T07:13:13;3.40;;;2.95;;
64791;SDS011;51226;47.504;19.074;2023-02-05T07:16:17;3.70;;;3.03;;
64791;SDS011;51226;47.504;19.074;2023-02-05T07:19:20;4.28;;;2.90;;
64791;SDS011;51226;47.504;19.074;2023-02-05T07:22:23;4.37;;;3.28;;
64791;SDS011;51226;47.504;19.074;2023-02-05T07:28:29;7.33;;;3.50;;
64791;SDS011;51226;47.504;19.074;2023-02-05T07:31:32;5.62;;;2.95;;
64791;SDS011;51226;47.504;19.074;2023-02-05T07:34:35;3.85;;;3.30;;
64791;SDS011;51226;47.504;19.074;2023-02-05T07:37:39;4.43;;;2.85;;
64791;SDS011;51226;47.504;19.074;2023-02-05T07:40:42;4.87;;;3.35;;
64791;SDS011;51226;47.504;19.074;2023-02-05T07:43:44;6.93;;;3.42;;
64791;SDS011;51226;47.504;19.074;2023-02-05T07:46:47;5.03;;;3.22;;
64791;SDS011;51226;47.504;19.074;2023-02-05T07:49:50;4.53;;;4.05;;
64791;SDS011;51226;47.504;19.074;2023-02-05T07:52:53;4.97;;;3.83;;
64791;SDS011;51226;47.504;19.074;2023-02-05T07:56:00;4.32;;;3.85;;
64791;SDS011;51226;47.504;19.074;2023-02-05T07:59:06;6.65;;;3.35;;
64791;SDS011;51226;47.504;19.074;2023-02-05T08:02:10;4.47;;;3.92;;
64791;SDS011;51226;47.504;19.074;2023-02-05T08:05:13;8.20;;;4.40;;
64791;SDS011;51226;47.504;19.074;2023-02-05T08:08:16;4.83;;;3.50;;
64791;SDS011;51226;47.504;19.074;2023-02-05T08:11:19;5.05;;;4.37;;
64791;SDS011;51226;47.504;19.074;2023-02-05T08:14:22;6.32;;;3.60;;
64791;SDS011;51226;47.504;19.074;2023-02-05T08:17:25;5.30;;;3.70;;
64791;SDS011;51226;47.504;19.074;2023-02-05T08:20:28;6.03;;;4.13;;
64791;SDS011;51226;47.504;19.074;2023-02-05T08:26:34;9.73;;;7.95;;
64791;SDS011;51226;47.504;19.074;2023-02-05T08:30:01;5.43;;;4.28;;
64791;SDS011;51226;47.504;19.074;2023-02-05T08:33:12;5.05;;;4.07;;
64791;SDS011;51226;47.504;19.074;2023-02-05T08:39:18;3.72;;;3.17;;
64791;SDS011;51226;47.504;19.074;2023-02-05T08:42:21;3.95;;;3.65;;
64791;SDS011;51226;47.504;19.074;2023-02-05T08:45:28;3.95;;;3.53;;
64791;SDS011;51226;47.504;19.074;2023-02-05T08:48:32;3.60;;;2.97;;
64791;SDS011;51226;47.504;19.074;2023-02-05T08:51:36;3.95;;;3.33;;
64791;SDS011;51226;47.504;19.074;2023-02-05T08:54:45;4.20;;;2.90;;
64791;SDS011;51226;47.504;19.074;2023-02-05T08:57:59;3.87;;;3.55;;
64791;SDS011;51226;47.504;19.074;2023-02-05T09:01:15;4.15;;;3.75;;
64791;SDS011;51226;47.504;19.074;2023-02-05T09:04:24;3.90;;;2.97;;
64791;SDS011;51226;47.504;19.074;2023-02-05T09:07:32;2.97;;;2.33;;
64791;SDS011;51226;47.504;19.074;2023-02-05T09:14:06;2.65;;;2.00;;
64791;SDS011;51226;47.504;19.074;2023-02-05T09:17:16;3.35;;;2.00;;
64791;SDS011;51226;47.504;19.074;2023-02-05T09:20:19;3.47;;;2.70;;
64791;SDS011;51226;47.504;19.074;2023-02-05T09:23:22;2.87;;;2.67;;
64791;SDS011;51226;47.504;19.074;2023-02-05T09:26:26;2.95;;;2.20;;
64791;SDS011;51226;47.504;19.074;2023-02-05T09:29:30;3.40;;;2.47;;
64791;SDS011;51226;47.504;19.074;2023-02-05T09:32:34;3.22;;;2.42;;
64791;SDS011;51226;47.504;19.074;2023-02-05T09:35:36;2.62;;;2.42;;
64791;SDS011;51226;47.504;19.074;2023-02-05T09:38:40;3.03;;;2.40;;
64791;SDS011;51226;47.504;19.074;2023-02-05T09:49:36;2.72;;;2.47;;
64791;SDS011;51226;47.504;19.074;2023-02-05T09:52:28;3.37;;;2.12;;
64791;SDS011;51226;47.504;19.074;2023-02-05T09:55:35;2.72;;;2.15;;
64791;SDS011;51226;47.504;19.074;2023-02-05T09:58:47;2.20;;;2.00;;
64791;SDS011;51226;47.504;19.074;2023-02-05T10:05:10;2.72;;;2.33;;
64791;SDS011;51226;47.504;19.074;2023-02-05T10:08:21;5.47;;;4.55;;
64791;SDS011;51226;47.504;19.074;2023-02-05T10:38:28;3.03;;;2.58;;
64791;SDS011;51226;47.504;19.074;2023-02-05T10:41:38;3.40;;;2.75;;
64791;SDS011;51226;47.504;19.074;2023-02-05T10:44:48;3.95;;;3.55;;
64791;SDS011;51226;47.504;19.074;2023-02-05T10:51:45;3.60;;;3.17;;
64791;SDS011;51226;47.504;19.074;2023-02-05T10:54:47;3.78;;;2.72;;
64791;SDS011;51226;47.504;19.074;2023-02-05T10:57:51;2.53;;;2.03;;
64791;SDS011;51226;47.504;19.074;2023-02-05T11:00:53;2.67;;;2.47;;
64791;SDS011;51226;47.504;19.074;2023-02-05T11:07:00;4.62;;;2.60;;
64791;SDS011;51226;47.504;19.074;2023-02-05T11:10:15;4.18;;;2.70;;
64791;SDS011;51226;47.504;19.074;2023-02-05T11:13:20;3.10;;;2.80;;
64791;SDS011;51226;47.504;19.074;2023-02-05T11:16:33;2.75;;;2.53;;
64791;SDS011;51226;47.504;19.074;2023-02-05T11:19:50;3.17;;;2.83;;
64791;SDS011;51226;47.504;19.074;2023-02-05T11:26:19;3.30;;;2.45;;
64791;SDS011;51226;47.504;19.074;2023-02-05T11:29:29;2.47;;;2.17;;
64791;SDS011;51226;47.504;19.074;2023-02-05T11:32:33;3.08;;;2.37;;
64791;SDS011;51226;47.504;19.074;2023-02-05T11:35:41;3.65;;;2.70;;
64791;SDS011;51226;47.504;19.074;2023-02-05T11:38:54;3.72;;;3.03;;
64791;SDS011;51226;47.504;19.074;2023-02-05T11:42:05;3.05;;;2.62;;
64791;SDS011;51226;47.504;19.074;2023-02-05T11:45:17;11.48;;;7.40;;
64791;SDS011;51226;47.504;19.074;2023-02-05T11:51:43;3.25;;;2.50;;
64791;SDS011;51226;47.504;19.074;2023-02-05T11:54:49;3.42;;;2.83;;
64791;SDS011;51226;47.504;19.074;2023-02-05T11:57:56;3.75;;;3.03;;
64791;SDS011;51226;47.504;19.074;2023-02-05T12:01:26;3.17;;;2.87;;
64791;SDS011;51226;47.504;19.074;2023-02-05T12:04:38;3.75;;;2.67;;
64791;SDS011;51226;47.504;19.074;2023-02-05T12:11:08;3.12;;;2.85;;
64791;SDS011;51226;47.504;19.074;2023-02-05T12:17:58;3.12;;;2.10;;
64791;SDS011;51226;47.504;19.074;2023-02-05T12:21:47;2.55;;;2.35;;
64791;SDS011;51226;47.504;19.074;2023-02-05T12:39:08;2.53;;;2.33;;
64791;SDS011;51226;47.504;19.074;2023-02-05T12:42:53;2.87;;;2.45;;
64791;SDS011;51226;47.504;19.074;2023-02-05T12:56:41;4.10;;;3.22;;
64791;SDS011;51226;47.504;19.074;2023-02-05T12:59:56;3.53;;;2.42;;
64791;SDS011;51226;47.504;19.074;2023-02-05T13:03:07;2.45;;;2.25;;
64791;SDS011;51226;47.504;19.074;2023-02-05T13:06:23;5.15;;;2.53;;
64791;SDS011;51226;47.504;19.074;2023-02-05T13:09:35;2.47;;;2.15;;
64791;SDS011;51226;47.504;19.074;2023-02-05T13:12:48;2.58;;;2.37;;
64791;SDS011;51226;47.504;19.074;2023-02-05T13:15:57;3.08;;;2.42;;
64791;SDS011;51226;47.504;19.074;2023-02-05T13:19:17;2.60;;;2.40;;
64791;SDS011;51226;47.504;19.074;2023-02-05T13:22:25;3.05;;;2.75;;
64791;SDS011;51226;47.504;19.074;2023-02-05T13:25:52;8.95;;;4.57;;
64791;SDS011;51226;47.504;19.074;2023-02-05T13:29:10;3.12;;;2.28;;
64791;SDS011;51226;47.504;19.074;2023-02-05T13:32:15;3.08;;;2.30;;
64791;SDS011;51226;47.504;19.074;2023-02-05T13:35:23;2.83;;;2.62;;
64791;SDS011;51226;47.504;19.074;2023-02-05T13:59:15;3.17;;;2.87;;
64791;SDS011;51226;47.504;19.074;2023-02-05T14:02:32;2.50;;;2.30;;
64791;SDS011;51226;47.504;19.074;2023-02-05T14:05:41;3.03;;;2.70;;
64791;SDS011;51226;47.504;19.074;2023-02-05T14:08:44;3.33;;;2.67;;
64791;SDS011;51226;47.504;19.074;2023-02-05T14:11:57;3.33;;;2.62;;
64791;SDS011;51226;47.504;19.074;2023-02-05T14:24:57;3.42;;;2.42;;
64791;SDS011;51226;47.504;19.074;2023-02-05T14:28:01;3.12;;;2.17;;
64791;SDS011;51226;47.504;19.074;2023-02-05T14:34:56;3.12;;;2.10;;
64791;SDS011;51226;47.504;19.074;2023-02-05T14:38:15;2.40;;;2.10;;
64791;SDS011;51226;47.504;19.074;2023-02-05T14:41:29;4.12;;;2.25;;
64791;SDS011;51226;47.504;19.074;2023-02-05T14:44:37;3.95;;;2.50;;
64791;SDS011;51226;47.504;19.074;2023-02-05T14:47:43;3.47;;;2.42;;
64791;SDS011;51226;47.504;19.074;2023-02-05T14:50:46;3.75;;;2.47;;
64791;SDS011;51226;47.504;19.074;2023-02-05T14:54:21;4.72;;;2.80;;
64791;SDS011;51226;47.504;19.074;2023-02-05T14:57:27;4.00;;;2.37;;
64791;SDS011;51226;47.504;19.074;2023-02-05T15:00:35;8.95;;;3.85;;
64791;SDS011;51226;47.504;19.074;2023-02-05T15:03:43;3.92;;;2.87;;
64791;SDS011;51226;47.504;19.074;2023-02-05T15:06:46;5.90;;;2.83;;
64791;SDS011;51226;47.504;19.074;2023-02-05T15:09:52;4.32;;;2.60;;
64791;SDS011;51226;47.504;19.074;2023-02-05T15:13:08;3.05;;;2.03;;
64791;SDS011;51226;47.504;19.074;2023-02-05T15:19:22;3.28;;;2.72;;
64791;SDS011;51226;47.504;19.074;2023-02-05T15:22:35;3.30;;;2.37;;
64791;SDS011;51226;47.504;19.074;2023-02-05T15:25:43;3.53;;;2.20;;
64791;SDS011;51226;47.504;19.074;2023-02-05T15:32:02;2.58;;;1.92;;
64791;SDS011;51226;47.504;19.074;2023-02-05T15:35:10;3.20;;;2.10;;
64791;SDS011;51226;47.504;19.074;2023-02-05T15:38:26;14.90;;;9.00;;
64791;SDS011;51226;47.504;19.074;2023-02-05T15:41:36;9.27;;;5.05;;
64791;SDS011;51226;47.504;19.074;2023-02-05T15:44:43;5.20;;;2.53;;
64791;SDS011;51226;47.504;19.074;2023-02-05T15:47:56;4.32;;;2.30;;
64791;SDS011;51226;47.504;19.074;2023-02-05T15:51:16;6.28;;;3.37;;
64791;SDS011;51226;47.504;19.074;2023-02-05T15:54:21;4.72;;;3.10;;
64791;SDS011;51226;47.504;19.074;2023-02-05T15:57:30;4.20;;;3.25;;
64791;SDS011;51226;47.504;19.074;2023-02-05T16:00:34;3.70;;;2.70;;
64791;SDS011;51226;47.504;19.074;2023-02-05T16:03:41;4.22;;;2.33;;
64791;SDS011;51226;47.504;19.074;2023-02-05T16:06:47;3.83;;;2.87;;
64791;SDS011;51226;47.504;19.074;2023-02-05T16:09:55;4.85;;;2.72;;
64791;SDS011;51226;47.504;19.074;2023-02-05T16:16:09;4.90;;;3.05;;
64791;SDS011;51226;47.504;19.074;2023-02-05T16:19:20;4.62;;;3.30;;
64791;SDS011;51226;47.504;19.074;2023-02-05T16:22:49;5.07;;;3.53;;
64791;SDS011;51226;47.504;19.074;2023-02-05T16:25:58;5.35;;;3.15;;
64791;SDS011;51226;47.504;19.074;2023-02-05T16:29:14;3.58;;;3.00;;
64791;SDS011;51226;47.504;19.074;2023-02-05T16:32:30;5.70;;;3.17;;
64791;SDS011;51226;47.504;19.074;2023-02-05T16:35:41;4.93;;;2.97;;
64791;SDS011;51226;47.504;19.074;2023-02-05T16:38:51;6.18;;;3.50;;
64791;SDS011;51226;47.504;19.074;2023-02-05T16:48:26;7.53;;;4.22;;
64791;SDS011;51226;47.504;19.074;2023-02-05T16:51:35;5.35;;;3.60;;
64791;SDS011;51226;47.504;19.074;2023-02-05T16:54:48;5.40;;;3.70;;
64791;SDS011;51226;47.504;19.074;2023-02-05T16:57:50;6.57;;;3.55;;
64791;SDS011;51226;47.504;19.074;2023-02-05T17:00:57;6.50;;;4.20;;
64791;SDS011;51226;47.504;19.074;2023-02-05T17:04:01;6.07;;;3.42;;
64791;SDS011;51226;47.504;19.074;2023-02-05T17:07:13;6.18;;;4.10;;
64791;SDS011;51226;47.504;19.074;2023-02-05T17:10:19;7.22;;;3.92;;
64791;SDS011;51226;47.504;19.074;2023-02-05T17:13:24;7.43;;;4.28;;
64791;SDS011;51226;47.504;19.074;2023-02-05T17:16:30;6.72;;;4.37;;
64791;SDS011;51226;47.504;19.074;2023-02-05T17:19:34;6.37;;;3.92;;
64791;SDS011;51226;47.504;19.074;2023-02-05T17:22:36;6.43;;;4.40;;
64791;SDS011;51226;47.504;19.074;2023-02-05T17:25:41;7.72;;;5.05;;
64791;SDS011;51226;47.504;19.074;2023-02-05T17:28:57;10.38;;;6.03;;
64791;SDS011;51226;47.504;19.074;2023-02-05T17:32:05;8.10;;;5.07;;
64791;SDS011;51226;47.504;19.074;2023-02-05T17:35:26;11.30;;;5.97;;
64791;SDS011;51226;47.504;19.074;2023-02-05T17:38:31;9.95;;;7.22;;
64791;SDS011;51226;47.504;19.074;2023-02-05T17:41:35;13.63;;;6.30;;
64791;SDS011;51226;47.504;19.074;2023-02-05T17:44:58;7.68;;;5.62;;
64791;SDS011;51226;47.504;19.074;2023-02-05T17:48:00;11.33;;;6.73;;
64791;SDS011;51226;47.504;19.074;2023-02-05T17:51:04;10.40;;;7.05;;
64791;SDS011;51226;47.504;19.074;2023-02-05T17:54:14;13.23;;;7.37;;
64791;SDS011;51226;47.504;19.074;2023-02-05T17:57:20;9.35;;;6.93;;
64791;SDS011;51226;47.504;19.074;2023-02-05T18:00:26;10.18;;;6.93;;
64791;SDS011;51226;47.504;19.074;2023-02-05T18:03:30;11.60;;;6.87;;
64791;SDS011;51226;47.504;19.074;2023-02-05T18:06:33;10.23;;;6.20;;
64791;SDS011;51226;47.504;19.074;2023-02-05T18:09:37;10.52;;;6.03;;
64791;SDS011;51226;47.504;19.074;2023-02-05T18:12:40;8.05;;;5.82;;
64791;SDS011;51226;47.504;19.074;2023-02-05T18:18:46;10.00;;;5.95;;
64791;SDS011;51226;47.504;19.074;2023-02-05T18:21:49;6.70;;;5.37;;
64791;SDS011;51226;47.504;19.074;2023-02-05T18:24:52;6.27;;;5.10;;
64791;SDS011;51226;47.504;19.074;2023-02-05T18:27:55;7.55;;;5.70;;
64791;SDS011;51226;47.504;19.074;2023-02-05T18:30:59;7.78;;;5.70;;
64791;SDS011;51226;47.504;19.074;2023-02-05T18:34:04;8.20;;;5.20;;
64791;SDS011;51226;47.504;19.074;2023-02-05T18:37:08;8.25;;;5.60;;
64791;SDS011;51226;47.504;19.074;2023-02-05T18:40:11;8.27;;;5.32;;
64791;SDS011;51226;47.504;19.074;2023-02-05T18:43:16;6.68;;;4.97;;
64791;SDS011;51226;47.504;19.074;2023-02-05T18:46:20;6.57;;;5.03;;
64791;SDS011;51226;47.504;19.074;2023-02-05T18:49:24;9.02;;;5.30;;
64791;SDS011;51226;47.504;19.074;2023-02-05T18:52:27;8.98;;;5.57;;
64791;SDS011;51226;47.504;19.074;2023-02-05T18:55:31;6.50;;;4.97;;
64791;SDS011;51226;47.504;19.074;2023-02-05T18:58:37;8.98;;;4.90;;
64791;SDS011;51226;47.504;19.074;2023-02-05T19:01:40;6.90;;;4.82;;
64791;SDS011;51226;47.504;19.074;2023-02-05T19:04:44;7.12;;;4.82;;
64791;SDS011;51226;47.504;19.074;2023-02-05T19:07:47;8.10;;;5.80;;
64791;SDS011;51226;47.504;19.074;2023-02-05T19:10:50;7.18;;;4.55;;
64791;SDS011;51226;47.504;19.074;2023-02-05T19:13:56;4.97;;;4.17;;
64791;SDS011;51226;47.504;19.074;2023-02-05T19:17:01;5.72;;;4.22;;
64791;SDS011;51226;47.504;19.074;2023-02-05T19:20:04;5.77;;;4.67;;
64791;SDS011;51226;47.504;19.074;2023-02-05T19:23:08;5.78;;;4.25;;
64791;SDS011;51226;47.504;19.074;2023-02-05T19:26:11;7.65;;;5.07;;
64791;SDS011;51226;47.504;19.074;2023-02-05T19:29:18;6.90;;;4.57;;
64791;SDS011;51226;47.504;19.074;2023-02-05T19:32:21;6.68;;;4.53;;
64791;SDS011;51226;47.504;19.074;2023-02-05T19:35:25;8.48;;;4.80;;
64791;SDS011;51226;47.504;19.074;2023-02-05T19:38:28;5.97;;;3.83;;
64791;SDS011;51226;47.504;19.074;2023-02-05T19:41:33;5.32;;;3.87;;
64791;SDS011;51226;47.504;19.074;2023-02-05T19:44:37;5.93;;;4.28;;
64791;SDS011;51226;47.504;19.074;2023-02-05T19:47:41;5.55;;;4.10;;
64791;SDS011;51226;47.504;19.074;2023-02-05T19:50:44;5.80;;;3.83;;
64791;SDS011;51226;47.504;19.074;2023-02-05T19:53:48;5.57;;;4.00;;
64791;SDS011;51226;47.504;19.074;2023-02-05T19:56:51;5.82;;;4.32;;
64791;SDS011;51226;47.504;19.074;2023-02-05T19:59:54;8.60;;;4.82;;
64791;SDS011;51226;47.504;19.074;2023-02-05T20:02:57;5.45;;;4.03;;
64791;SDS011;51226;47.504;19.074;2023-02-05T20:09:14;6.93;;;4.60;;
64791;SDS011;51226;47.504;19.074;2023-02-05T20:12:18;7.25;;;4.57;;
64791;SDS011;51226;47.504;19.074;2023-02-05T20:15:21;6.28;;;4.37;;
64791;SDS011;51226;47.504;19.074;2023-02-05T20:18:24;5.93;;;4.05;;
64791;SDS011;51226;47.504;19.074;2023-02-05T20:21:27;6.03;;;4.27;;
64791;SDS011;51226;47.504;19.074;2023-02-05T20:24:31;6.40;;;4.75;;
64791;SDS011;51226;47.504;19.074;2023-02-05T20:27:36;6.37;;;4.15;;
64791;SDS011;51226;47.504;19.074;2023-02-05T20:30:40;6.57;;;4.18;;
64791;SDS011;51226;47.504;19.074;2023-02-05T20:34:08;8.18;;;5.20;;
64791;SDS011;51226;47.504;19.074;2023-02-05T20:37:54;6.97;;;4.10;;
64791;SDS011;51226;47.504;19.074;2023-02-05T20:40:56;8.50;;;5.53;;
64791;SDS011;51226;47.504;19.074;2023-02-05T20:44:01;6.35;;;4.53;;
64791;SDS011;51226;47.504;19.074;2023-02-05T20:47:06;6.78;;;4.65;;
64791;SDS011;51226;47.504;19.074;2023-02-05T20:50:12;9.05;;;5.00;;
64791;SDS011;51226;47.504;19.074;2023-02-05T20:53:14;6.12;;;4.62;;
64791;SDS011;51226;47.504;19.074;2023-02-05T20:56:18;5.93;;;4.03;;
64791;SDS011;51226;47.504;19.074;2023-02-05T20:59:21;5.75;;;4.57;;
64791;SDS011;51226;47.504;19.074;2023-02-05T21:05:30;8.57;;;5.00;;
64791;SDS011;51226;47.504;19.074;2023-02-05T21:08:33;8.73;;;5.55;;
64791;SDS011;51226;47.504;19.074;2023-02-05T21:11:40;6.43;;;4.37;;
64791;SDS011;51226;47.504;19.074;2023-02-05T21:14:44;7.45;;;4.85;;
64791;SDS011;51226;47.504;19.074;2023-02-05T21:17:47;8.07;;;4.97;;
64791;SDS011;51226;47.504;19.074;2023-02-05T21:20:50;7.12;;;4.60;;
64791;SDS011;51226;47.504;19.074;2023-02-05T21:23:54;6.18;;;4.47;;
64791;SDS011;51226;47.504;19.074;2023-02-05T21:26:59;8.23;;;5.37;;
64791;SDS011;51226;47.504;19.074;2023-02-05T21:30:02;6.47;;;4.50;;
64791;SDS011;51226;47.504;19.074;2023-02-05T21:33:05;7.57;;;4.87;;
64791;SDS011;51226;47.504;19.074;2023-02-05T21:36:08;6.50;;;4.72;;
64791;SDS011;51226;47.504;19.074;2023-02-05T21:39:16;5.62;;;4.50;;
64791;SDS011;51226;47.504;19.074;2023-02-05T21:42:21;6.75;;;5.05;;
64791;SDS011;51226;47.504;19.074;2023-02-05T21:45:24;6.95;;;4.90;;
64791;SDS011;51226;47.504;19.074;2023-02-05T21:48:27;7.40;;;4.40;;